This is the latest recevied weather packets stored in our database for station/object WC4PEM-10. If no packets are shown the sender has not sent any weather packets the latest 1 day(s).
| Time | Temp. | Humidity | Pressure | Rain* | Wind** | Luminosity | Snow |
|---|---|---|---|---|---|---|---|
| 1778017492 | 29.44° C | 53% | 1013.7 hPa | 0 mm | 4.47 m/s, 97° | - | - |
| 1778017287 | 29.44° C | 53% | 1013.7 hPa | 0 mm | 4.47 m/s, 97° | - | - |
| 1778017111 | 29.44° C | 54% | 1013.7 hPa | 0 mm | 4.92 m/s, 118° | - | - |
| 1778016987 | 29.44° C | 54% | 1013.7 hPa | 0 mm | 4.92 m/s, 118° | - | - |
| 1778016758 | 29.44° C | 53% | 1013.7 hPa | 0 mm | 4.02 m/s, 92° | - | - |
| 1778016687 | 29.44° C | 53% | 1013.7 hPa | 0 mm | 4.02 m/s, 92° | - | - |
| 1778016607 | 29.44° C | 52% | 1013.6 hPa | 0 mm | 4.02 m/s, 102° | - | - |
| 1778016434 | 29.44° C | 52% | 1013.6 hPa | 0 mm | 3.13 m/s, 133° | - | - |
| 1778016387 | 29.44° C | 52% | 1013.6 hPa | 0 mm | 3.13 m/s, 133° | - | - |
| 1778016087 | 29.44° C | 52% | 1013.7 hPa | 0 mm | 4.02 m/s, 74° | - | - |
| 1778015905 | 29.44° C | 52% | 1013.6 hPa | 0 mm | 4.47 m/s, 98° | - | - |
| 1778015787 | 29.44° C | 52% | 1013.6 hPa | 0 mm | 4.47 m/s, 98° | - | - |
| 1778015487 | 29.44° C | 52% | 1013.6 hPa | 0 mm | 4.02 m/s, 102° | - | - |
| 1778015365 | 29.44° C | 52% | 1013.7 hPa | 0 mm | 4.02 m/s, 107° | - | - |
| 1778015187 | 29.44° C | 52% | 1013.7 hPa | 0 mm | 4.02 m/s, 107° | - | - |
| 1778014887 | 29.44° C | 51% | 1013.7 hPa | 0 mm | 4.92 m/s, 61° | - | - |
| 1778014810 | 29.44° C | 51% | 1013.7 hPa | 0 mm | 4.47 m/s, 92° | - | - |
| 1778014587 | 29.44° C | 51% | 1013.7 hPa | 0 mm | 4.47 m/s, 92° | - | - |
| 1778014388 | 29.44° C | 52% | 1013.5 hPa | 0 mm | 4.47 m/s, 65° | - | - |
| 1778014272 | 30.56° C | 50% | 1013.6 hPa | 0 mm | 4.02 m/s, 106° | - | - |
| 1778014211 | 30° C | 50% | 1013.6 hPa | 0 mm | 4.47 m/s, 74° | - | - |
| 1778013987 | 30° C | 50% | 1013.6 hPa | 0 mm | 4.47 m/s, 74° | - | - |
| 1778013766 | 30.56° C | 50% | 1013.6 hPa | 0 mm | 4.02 m/s, 106° | - | - |
| 1778013687 | 30.56° C | 50% | 1013.6 hPa | 0 mm | 4.02 m/s, 106° | - | - |
| 1778013491 | 30.56° C | 50% | 1013.7 hPa | 0 mm | 3.58 m/s, 106° | - | - |
* Rain latest hour (hover to see other rain measurements)
** Current wind speed in m/s (hover to see current wind gust speed)